Madison, Nebraska
Current Conditions -  °F | °C
As of 11:15 PM on Wednesday 22 Oct 2014 (Local Time) from KOFK Reporting Station
Overcast Overcast  
Wind Chill: 56°   Ceiling: 2600
Heat Index: 56°   Visibility: 10mi
Dew Point: 54°   Wind: 5mph
Humidity: 93%   Direction: 310°NW
Pressure: 30.04"   Gusts: NA
Location:  41.83°N, 97.46°W
Report Text: KOFK 230415Z AUTO 31004KT 10SM SCT011 SCT018 OVC026 13/12 A3004 RMK AO2 RAB02E11 P0000 T01330122
Loading
Personal Weather Stations






























Interactive Weather Map New forecast layout! Learn more

10-Day Weather Forecast

Advertisements
Track Severe Weather on mobile